Map

Track Data

SID SEASON NUMBER BASIN SUBBASIN NAME ISO_TIME NATURE LAT LON WMO_WIND WMO_PRES WMO_AGENCY TRACK_TYPE DIST2LAND LANDFALL IFLAG USA_AGENCY USA_ATCF_ID USA_LAT USA_LON USA_RECORD USA_STATUS USA_WIND USA_PRES USA_SSHS USA_R34_NE USA_R34_SE USA_R34_SW USA_R34_NW USA_R50_NE USA_R50_SE USA_R50_SW USA_R50_NW USA_R64_NE USA_R64_SE USA_R64_SW USA_R64_NW USA_POCI USA_ROCI USA_RMW USA_EYE TOKYO_LAT TOKYO_LON TOKYO_GRADE TOKYO_WIND TOKYO_PRES TOKYO_R50_DIR TOKYO_R50_LONG TOKYO_R50_SHORT TOKYO_R30_DIR TOKYO_R30_LONG TOKYO_R30_SHORT TOKYO_LAND CMA_LAT CMA_LON CMA_CAT CMA_WIND CMA_PRES HKO_LAT HKO_LON HKO_CAT HKO_WIND HKO_PRES NEWDELHI_LAT NEWDELHI_LON NEWDELHI_GRADE NEWDELHI_WIND NEWDELHI_PRES NEWDELHI_CI NEWDELHI_DP NEWDELHI_POCI REUNION_LAT REUNION_LON REUNION_TYPE REUNION_WIND REUNION_PRES REUNION_TNUM REUNION_CI REUNION_RMW REUNION_R34_NE REUNION_R34_SE REUNION_R34_SW REUNION_R34_NW REUNION_R50_NE REUNION_R50_SE REUNION_R50_SW REUNION_R50_NW REUNION_R64_NE REUNION_R64_SE REUNION_R64_SW REUNION_R64_NW BOM_LAT BOM_LON BOM_TYPE BOM_WIND BOM_PRES BOM_TNUM BOM_CI BOM_RMW BOM_R34_NE BOM_R34_SE BOM_R34_SW BOM_R34_NW BOM_R50_NE BOM_R50_SE BOM_R50_SW BOM_R50_NW BOM_R64_NE BOM_R64_SE BOM_R64_SW BOM_R64_NW BOM_ROCI BOM_POCI BOM_EYE BOM_POS_METHOD BOM_PRES_METHOD NADI_LAT NADI_LON NADI_CAT NADI_WIND NADI_PRES WELLINGTON_LAT WELLINGTON_LON WELLINGTON_WIND WELLINGTON_PRES DS824_LAT DS824_LON DS824_STAGE DS824_WIND DS824_PRES TD9636_LAT TD9636_LON TD9636_STAGE TD9636_WIND TD9636_PRES TD9635_LAT TD9635_LON TD9635_WIND TD9635_PRES TD9635_ROCI NEUMANN_LAT NEUMANN_LON NEUMANN_CLASS NEUMANN_WIND NEUMANN_PRES MLC_LAT MLC_LON MLC_CLASS MLC_WIND MLC_PRES USA_GUST BOM_GUST BOM_GUST_PER REUNION_GUST REUNION_GUST_PER USA_SEAHGT USA_SEARAD_NE USA_SEARAD_SE USA_SEARAD_SW USA_SEARAD_NW STORM_SPEED STORM_DIR
1932217N12127 1932 40 WP MM NOT_NAMED 1932-08-03 21:00:00 NR 12.1000 126.800 main 141 98 __________O___ -1 12.1000 126.800 2 9 306
1932217N12127 1932 40 WP MM NOT_NAMED 1932-08-04 00:00:00 NR 12.3648 126.423 main 100 79 __________P___ -1 12.3648 126.423 2 9 309
1932217N12127 1932 40 WP MM NOT_NAMED 1932-08-04 03:00:00 NR 12.6734 126.087 main 85 78 __________P___ -1 12.6734 126.087 2 9 321
1932217N12127 1932 40 WP MM NOT_NAMED 1932-08-04 06:00:00 NR 13.0702 125.832 main 93 93 __________P___ -1 13.0702 125.832 2 10 338
1932217N12127 1932 40 WP MM NOT_NAMED 1932-08-04 09:00:00 NR 13.6000 125.700 main 134 134 __________O___ -1 13.6000 125.700 2 12 355
1932217N12127 1932 40 WP MM NOT_NAMED 1932-08-04 12:00:00 NR 14.2834 125.720 main 147 147 __________P___ -1 14.2834 125.720 2 15 6
1932217N12127 1932 40 WP MM NOT_NAMED 1932-08-04 15:00:00 NR 15.0447 125.868 main 203 203 __________P___ -1 15.0447 125.868 2 16 14
1932217N12127 1932 40 WP MM NOT_NAMED 1932-08-04 18:00:00 NR 15.7836 126.107 main 279 279 __________P___ -1 15.7836 126.107 2 15 21
1932217N12127 1932 40 WP MM NOT_NAMED 1932-08-04 21:00:00 NR 16.4000 126.400 main 350 350 __________O___ -1 16.4000 126.400 2 11 31
1932217N12127 1932 40 WP MM NOT_NAMED 1932-08-05 00:00:00 NR 16.7252 126.699 main 397 397 __________P___ -1 16.7252 126.699 2 8 49
1932217N12127 1932 40 WP MM NOT_NAMED 1932-08-05 03:00:00 NR 16.9253 127.036 main 434 434 __________P___ -1 16.9253 127.036 2 7 61
1932217N12127 1932 40 WP MM NOT_NAMED 1932-08-05 06:00:00 NR 17.0877 127.380 main 480 480 __________P___ -1 17.0877 127.380 2 7 59
1932217N12127 1932 40 WP MM NOT_NAMED 1932-08-05 09:00:00 NR 17.3000 127.700 main 518 518 __________O___ -1 17.3000 127.700 2 9 41
1932217N12127 1932 40 WP MM NOT_NAMED 1932-08-05 12:00:00 NR 17.7421 127.977 main 572 572 __________P___ -1 17.7421 127.977 2 11 28
1932217N12127 1932 40 WP MM NOT_NAMED 1932-08-05 15:00:00 NR 18.2374 128.224 main 618 618 __________P___ -1 18.2374 128.224 2 11 24
1932217N12127 1932 40 WP MM NOT_NAMED 1932-08-05 18:00:00 NR 18.7140 128.434 main 643 643 __________P___ -1 18.7140 128.434 2 9 22
1932217N12127 1932 40 WP MM NOT_NAMED 1932-08-05 21:00:00 NR 19.1000 128.600 main 667 667 __________O___ -1 19.1000 128.600 2 6 25
1932217N12127 1932 40 WP MM NOT_NAMED 1932-08-06 00:00:00 NR 19.2964 128.723 main 680 680 __________P___ -1 19.2964 128.723 2 4 33
1932217N12127 1932 40 WP MM NOT_NAMED 1932-08-06 03:00:00 NR 19.3973 128.803 main 692 692 __________P___ -1 19.3973 128.803 2 2 39
1932217N12127 1932 40 WP MM NOT_NAMED 1932-08-06 06:00:00 NR 19.4496 128.857 main 703 703 __________P___ -1 19.4496 128.857 2 1 41
1932217N12127 1932 40 WP MM NOT_NAMED 1932-08-06 09:00:00 NR 19.5000 128.900 main 704 704 __________O___ -1 19.5000 128.900 2 2 33
1932217N12127 1932 40 WP MM NOT_NAMED 1932-08-06 12:00:00 NR 19.5975 128.957 main 717 717 __________P___ -1 19.5975 128.957 2 2 27
1932217N12127 1932 40 WP MM NOT_NAMED 1932-08-06 15:00:00 NR 19.7050 129.008 main 719 719 __________P___ -1 19.7050 129.008 2 3 20
1932217N12127 1932 40 WP MM NOT_NAMED 1932-08-06 18:00:00 NR 19.8350 129.054 main 731 731 __________P___ -1 19.8350 129.054 2 3 17
1932217N12127 1932 40 WP MM NOT_NAMED 1932-08-06 21:00:00 NR 20.0000 129.100 main 736 736 __________O___ -1 20.0000 129.100 2 4 10
1932217N12127 1932 40 WP MM NOT_NAMED 1932-08-07 00:00:00 NR 20.1896 129.130 main 741 741 __________P___ -1 20.1896 129.130 2 4 7
1932217N12127 1932 40 WP MM NOT_NAMED 1932-08-07 03:00:00 NR 20.4174 129.163 main 757 757 __________P___ -1 20.4174 129.163 2 5 9
1932217N12127 1932 40 WP MM NOT_NAMED 1932-08-07 06:00:00 NR 20.6865 129.215 main 767 767 __________P___ -1 20.6865 129.215 2 6 12
1932217N12127 1932 40 WP MM NOT_NAMED 1932-08-07 09:00:00 NR 21.0000 129.300 main 788 788 __________O___ -1 21.0000 129.300 2 7 17
1932217N12127 1932 40 WP MM NOT_NAMED 1932-08-07 12:00:00 NR 21.3895 129.446 main 814 814 __________P___ -1 21.3895 129.446 2 9 21
1932217N12127 1932 40 WP MM NOT_NAMED 1932-08-07 15:00:00 NR 21.8152 129.626 main 842 838 __________P___ -1 21.8152 129.626 2 9 22
1932217N12127 1932 40 WP MM NOT_NAMED 1932-08-07 18:00:00 NR 22.2333 129.818 main 845 842 __________P___ -1 22.2333 129.818 2 9 24
1932217N12127 1932 40 WP MM NOT_NAMED 1932-08-07 21:00:00 NR 22.6000 130.000 main 851 848 __________O___ -1 22.6000 130.000 2 6 28
1932217N12127 1932 40 WP MM NOT_NAMED 1932-08-08 00:00:00 NR 22.7802 130.129 main 855 855 __________P___ -1 22.7802 130.129 2 4 35
1932217N12127 1932 40 WP MM NOT_NAMED 1932-08-08 03:00:00 NR 22.9173 130.245 main 863 863 __________P___ -1 22.9173 130.245 2 4 35
1932217N12127 1932 40 WP MM NOT_NAMED 1932-08-08 06:00:00 NR 23.0958 130.363 main 878 848 __________P___ -1 23.0958 130.363 2 5 26
1932217N12127 1932 40 WP MM NOT_NAMED 1932-08-08 09:00:00 NR 23.4000 130.500 main 848 781 __________O___ -1 23.4000 130.500 2 10 19
1932217N12127 1932 40 WP MM NOT_NAMED 1932-08-08 12:00:00 NR 24.0077 130.705 main 781 703 __________P___ -1 24.0077 130.705 2 14 16
1932217N12127 1932 40 WP MM NOT_NAMED 1932-08-08 15:00:00 NR 24.7354 130.927 main 703 626 __________P___ -1 24.7354 130.927 2 15 15
1932217N12127 1932 40 WP MM NOT_NAMED 1932-08-08 18:00:00 NR 25.4704 131.136 main 615 550 __________P___ -1 25.4704 131.136 2 14 14
1932217N12127 1932 40 WP MM NOT_NAMED 1932-08-08 21:00:00 NR 26.1000 131.300 main 550 506 __________O___ -1 26.1000 131.300 2 10 12
1932217N12127 1932 40 WP MM NOT_NAMED 1932-08-09 00:00:00 NR 26.4719 131.377 main 506 484 __________P___ -1 26.4719 131.377 2 6 9
1932217N12127 1932 40 WP MM NOT_NAMED 1932-08-09 03:00:00 NR 26.7271 131.404 main 484 462 __________P___ -1 26.7271 131.404 2 4 3
1932217N12127 1932 40 WP MM NOT_NAMED 1932-08-09 06:00:00 NR 26.9189 131.404 main 462 440 __________P___ -1 26.9189 131.404 2 4 357
1932217N12127 1932 40 WP MM NOT_NAMED 1932-08-09 09:00:00 NR 27.1000 131.400 main 440 418 __________O___ -1 27.1000 131.400 4 4 1
1932217N12127 1932 40 WP MM NOT_NAMED 1932-08-09 12:00:00 NR 27.3540 131.413 main 407 385 __________P___ -1 27.3540 131.413 4 5 0
1932217N12127 1932 40 WP MM NOT_NAMED 1932-08-09 15:00:00 NR 27.6074 131.428 main 385 363 __________P___ -1 27.6074 131.428 4 5 5
1932217N12127 1932 40 WP MM NOT_NAMED 1932-08-09 18:00:00 NR 27.8571 131.454 main 354 332 __________P___ -1 27.8571 131.454 4 5 8
1932217N12127 1932 40 WP MM NOT_NAMED 1932-08-09 21:00:00 NR 28.1000 131.500 main 332 313 __________O___ -1 28.1000 131.500 4 5 13
1932217N12127 1932 40 WP MM NOT_NAMED 1932-08-10 00:00:00 NR 28.3160 131.578 main 313 292 __________P___ -1 28.3160 131.578 4 5 20
1932217N12127 1932 40 WP MM NOT_NAMED 1932-08-10 03:00:00 NR 28.5275 131.678 main 295 274 __________P___ -1 28.5275 131.678 4 5 23
1932217N12127 1932 40 WP MM NOT_NAMED 1932-08-10 06:00:00 NR 28.7503 131.788 main 267 251 __________P___ -1 28.7503 131.788 4 5 22
1932217N12127 1932 40 WP MM NOT_NAMED 1932-08-10 09:00:00 NR 29.0000 131.900 main 251 227 __________O___ -1 29.0000 131.900 4 6 19
1932217N12127 1932 40 WP MM NOT_NAMED 1932-08-10 12:00:00 NR 29.3166 132.008 main 227 205 __________P___ -1 29.3166 132.008 4 7 16
1932217N12127 1932 40 WP MM NOT_NAMED 1932-08-10 15:00:00 NR 29.6575 132.115 main 197 173 __________P___ -1 29.6575 132.115 4 7 15
1932217N12127 1932 40 WP MM NOT_NAMED 1932-08-10 18:00:00 NR 29.9947 132.214 main 173 149 __________P___ -1 29.9947 132.214 4 7 14
1932217N12127 1932 40 WP MM NOT_NAMED 1932-08-10 21:00:00 NR 30.3000 132.300 main 149 132 __________O___ -1 30.3000 132.300 4 6 14
1932217N12127 1932 40 WP MM NOT_NAMED 1932-08-11 00:00:00 NR 30.5481 132.365 main 138 123 __________P___ -1 30.5481 132.365 4 5 12
1932217N12127 1932 40 WP MM NOT_NAMED 1932-08-11 03:00:00 NR 30.7599 132.415 main 116 110 __________P___ -1 30.7599 132.415 4 4 11
1932217N12127 1932 40 WP MM NOT_NAMED 1932-08-11 06:00:00 NR 30.9418 132.458 main 118 109 __________P___ -1 30.9418 132.458 4 3 12
1932217N12127 1932 40 WP MM NOT_NAMED 1932-08-11 09:00:00 NR 31.1000 132.500 main 109 104 __________O___ -1 31.1000 132.500 4 3 8
1932217N12127 1932 40 WP MM NOT_NAMED 1932-08-11 12:00:00 NR 31.2830 132.530 main 104 104 __________P___ -1 31.2830 132.530 4 3 10
1932217N12127 1932 40 WP MM NOT_NAMED 1932-08-11 15:00:00 NR 31.4398 132.562 main 113 109 __________P___ -1 31.4398 132.562 4 3 14
1932217N12127 1932 40 WP MM NOT_NAMED 1932-08-11 18:00:00 NR 31.5517 132.614 main 106 106 __________P___ -1 31.5517 132.614 4 2 36
1932217N12127 1932 40 WP MM NOT_NAMED 1932-08-11 21:00:00 NR 31.6000 132.700 main 115 115 __________O___ -1 31.6000 132.700 4 2 77
1932217N12127 1932 40 WP MM NOT_NAMED 1932-08-12 00:00:00 NR 31.6015 132.860 main 123 122 __________P___ -1 31.6015 132.860 4 3 102
1932217N12127 1932 40 WP MM NOT_NAMED 1932-08-12 03:00:00 NR 31.5353 133.050 main 134 134 __________P___ -1 31.5353 133.050 4 4 122
1932217N12127 1932 40 WP MM NOT_NAMED 1932-08-12 06:00:00 NR 31.4015 133.241 main 146 146 __________P___ -1 31.4015 133.241 4 4 138
1932217N12127 1932 40 WP MM NOT_NAMED 1932-08-12 09:00:00 NR 31.2000 133.400 main 171 171 __________O___ -1 31.2000 133.400 4 6 153
1932217N12127 1932 40 WP MM NOT_NAMED 1932-08-12 12:00:00 NR 30.8988 133.535 main 206 206 __________P___ -1 30.8988 133.535 4 7 163
1932217N12127 1932 40 WP MM NOT_NAMED 1932-08-12 15:00:00 NR 30.5421 133.628 main 232 232 __________P___ -1 30.5421 133.628 4 7 171
1932217N12127 1932 40 WP MM NOT_NAMED 1932-08-12 18:00:00 NR 30.1893 133.657 main 256 255 __________P___ -1 30.1893 133.657 4 6 0
1932217N12127 1932 40 WP MM NOT_NAMED 1932-08-12 21:00:00 NR 29.9000 133.600 main 268 268 __________O___ -1 29.9000 133.600 4 5 203
1932217N12127 1932 40 WP MM NOT_NAMED 1932-08-13 00:00:00 NR 29.7251 133.427 main 269 262 __________P___ -1 29.7251 133.427 4 5 233
1932217N12127 1932 40 WP MM NOT_NAMED 1932-08-13 03:00:00 NR 29.6231 133.174 main 264 246 __________P___ -1 29.6231 133.174 4 5 253
1932217N12127 1932 40 WP MM NOT_NAMED 1932-08-13 06:00:00 NR 29.5845 132.884 main 246 231 __________P___ -1 29.5845 132.884 4 5 267
1932217N12127 1932 40 WP MM NOT_NAMED 1932-08-13 09:00:00 NR 29.6000 132.600 main 231 222 __________O___ -1 29.6000 132.600 4 4 279
1932217N12127 1932 40 WP MM NOT_NAMED 1932-08-13 12:00:00 NR 29.6493 132.398 main 222 204 __________P___ -1 29.6493 132.398 4 4 293
1932217N12127 1932 40 WP MM NOT_NAMED 1932-08-13 15:00:00 NR 29.7470 132.208 main 204 174 __________P___ -1 29.7470 132.208 4 4 304
1932217N12127 1932 40 WP MM NOT_NAMED 1932-08-13 18:00:00 NR 29.8712 132.014 main 174 153 __________P___ -1 29.8712 132.014 4 4 306
1932217N12127 1932 40 WP MM NOT_NAMED 1932-08-13 21:00:00 NR 30.0000 131.800 main 153 117 __________O___ -1 30.0000 131.800 4 5 302
1932217N12127 1932 40 WP MM NOT_NAMED 1932-08-14 00:00:00 NR 30.1615 131.482 main 117 91 __________P___ -1 30.1615 131.482 4 6 299
1932217N12127 1932 40 WP MM NOT_NAMED 1932-08-14 03:00:00 NR 30.3133 131.153 main 91 69 __________P___ -1 30.3133 131.153 4 6 295
1932217N12127 1932 40 WP MM NOT_NAMED 1932-08-14 06:00:00 NR 30.4083 130.872 main 69 66 __________P___ -1 30.4083 130.872 4 4 282
1932217N12127 1932 40 WP MM NOT_NAMED 1932-08-14 09:00:00 NR 30.4000 130.700 main 66 66 __________O___ -1 30.4000 130.700 4 3 216
1932217N12127 1932 40 WP MM NOT_NAMED 1932-08-14 12:00:00 NR 30.1341 130.642 main 100 100 __________P___ -1 30.1341 130.642 4 6 0
1932217N12127 1932 40 WP MM NOT_NAMED 1932-08-14 15:00:00 NR 29.7807 130.706 main 133 133 __________P___ -1 29.7807 130.706 4 7 162
1932217N12127 1932 40 WP MM NOT_NAMED 1932-08-14 18:00:00 NR 29.4620 130.891 main 168 168 __________P___ -1 29.4620 130.891 4 6 138
1932217N12127 1932 40 WP MM NOT_NAMED 1932-08-14 21:00:00 NR 29.3000 131.200 main 195 190 __________O___ -1 29.3000 131.200 4 6 91
1932217N12127 1932 40 WP MM NOT_NAMED 1932-08-15 00:00:00 NR 29.4490 131.610 main 198 188 __________P___ -1 29.4490 131.610 4 9 60
1932217N12127 1932 40 WP MM NOT_NAMED 1932-08-15 03:00:00 NR 29.7632 132.140 main 189 183 __________P___ -1 29.7632 132.140 4 12 54
1932217N12127 1932 40 WP MM NOT_NAMED 1932-08-15 06:00:00 NR 30.1706 132.751 main 189 188 __________P___ -1 30.1706 132.751 4 14 52
1932217N12127 1932 40 WP MM NOT_NAMED 1932-08-15 09:00:00 NR 30.6000 133.400 main 210 210 __________O___ -1 30.6000 133.400 4 13 55
1932217N12127 1932 40 WP MM NOT_NAMED 1932-08-15 12:00:00 NR 30.9163 133.976 main 221 211 __________P___ -1 30.9163 133.976 4 12 58
1932217N12127 1932 40 WP MM NOT_NAMED 1932-08-15 15:00:00 NR 31.2441 134.586 main 225 201 __________P___ -1 31.2441 134.586 4 13 58
1932217N12127 1932 40 WP MM NOT_NAMED 1932-08-15 18:00:00 NR 31.5999 135.253 main 206 156 __________P___ -1 31.5999 135.253 4 14 58
1932217N12127 1932 40 WP MM NOT_NAMED 1932-08-15 21:00:00 NR 32.0000 136.000 main 157 138 __________O___ -1 32.0000 136.000 4 15 59
1932217N12127 1932 40 WP MM NOT_NAMED 1932-08-16 00:00:00 NR 32.3524 136.748 main 139 139 __________P___ -1 32.3524 136.748 4 15 60
1932217N12127 1932 40 WP MM NOT_NAMED 1932-08-16 03:00:00 NR 32.7630 137.594 main 173 147 __________P___ -1 32.7630 137.594 4 18 59
1932217N12127 1932 40 WP MM NOT_NAMED 1932-08-16 06:00:00 NR 33.2924 138.591 main 146 100 __________P___ -1 33.2924 138.591 4 22 56
1932217N12127 1932 40 WP MM NOT_NAMED 1932-08-16 09:00:00 NR 34.0000 139.800 main 100 66 __________O___ -1 34.0000 139.800 4 29 53
1932217N12127 1932 40 WP MM NOT_NAMED 1932-08-16 12:00:00 NR 35.0484 141.406 main 90 84 __________P___ -1 35.0484 141.406 4 36 52
1932217N12127 1932 40 WP MM NOT_NAMED 1932-08-16 15:00:00 NR 36.2386 143.244 main 213 213 __________P___ -1 36.2386 143.244 4 38 52
1932217N12127 1932 40 WP MM NOT_NAMED 1932-08-16 18:00:00 NR 37.4066 145.141 main 330 330 __________P___ -1 37.4066 145.141 4 36 53
1932217N12127 1932 40 WP MM NOT_NAMED 1932-08-16 21:00:00 NR 38.4000 146.900 main 431 431 __________O___ -1 38.4000 146.900 4 30 56
1932217N12127 1932 40 WP MM NOT_NAMED 1932-08-17 00:00:00 NR 39.1162 148.353 main 516 508 __________P___ -1 39.1162 148.353 4 24 59
1932217N12127 1932 40 WP MM NOT_NAMED 1932-08-17 03:00:00 NR 39.6031 149.526 main 520 520 __________P___ -1 39.6031 149.526 4 19 64
1932217N12127 1932 40 WP MM NOT_NAMED 1932-08-17 06:00:00 NR 39.9398 150.510 main 553 552 __________P___ -1 39.9398 150.510 4 16 67
1932217N12127 1932 40 WP MM NOT_NAMED 1932-08-17 09:00:00 NR 40.2000 151.400 main 590 __________O___ -1 40.2000 151.400 4 15 69

Digital Typhoon Data and Search

About IBTrACS Database

This database is a web-friendly format of International Best Track Archive for Climate Stewardship (IBTrACS), a global best track data archive curated by NOAA dating back to 1842.

Updated: 2021-12-03